Flight Track Log - Related Links

Times and Time Zones

All times are in EST time to prevent confusion due to time zone crossing. See the FFT532 flight status page for this flight to view local times or setup timezone preferences in your user account.

Time Position Orientation Groundspeed Altitude Reporting Facility
EST Latitude Longitude Course Direction KTS MPH feet Rate Location/Type
Thu 01:19:23 PM 39.8770 -104.6200 North 177 204 5,900  Level FlightAware ADS-B
Thu 01:19:51 PM 39.8760 -104.5890 92° East 194 223 7,000 1,900 Climbing FlightAware ADS-B
Thu 01:20:23 PM 39.8760 -104.5470 90° East 230 265 7,800 1,412 Climbing FlightAware ADS-B
Thu 01:20:59 PM 39.8760 -104.4930 90° East 278 320 8,600 1,865 Climbing FlightAware ADS-B
Thu 01:21:37 PM 39.8760 -104.4240 90° East 308 354 10,100 2,032 Climbing FlightAware ADS-B
Thu 01:22:01 PM 39.8770 -104.3760 88° East 337 388 10,700 2,500 Climbing FlightAware ADS-B
Thu 01:22:37 PM 39.8780 -104.3020 89° East 341 392 12,600 2,795 Climbing FlightAware ADS-B
Thu 01:23:14 PM 39.8780 -104.2340 90° East 352 405 14,100 2,385 Climbing FlightAware ADS-B
Thu 01:23:55 PM 39.8800 -104.1370 88° East 368 423 15,700 2,366 Climbing FlightAware ADS-B
Thu 01:24:25 PM 39.8800 -104.0710 90° East 373 429 16,900 2,323 Climbing FlightAware ADS-B
Thu 01:24:57 PM 39.8810 -103.9960 89° East 384 442 18,100 2,438 Climbing FlightAware ADS-B
Thu 01:25:29 PM 39.8820 -103.9230 89° East 388 447 19,500 2,348 Climbing FlightAware ADS-B
Thu 01:26:29 PM 39.8830 -103.7810 89° East 398 458 21,700 2,133 Climbing FlightAware ADS-B
Thu 01:26:59 PM 39.8860 -103.7110 87° East 403 464 22,700 2,000 Climbing FlightAware ADS-B
Thu 01:27:29 PM 39.8950 -103.6360 81° East 409 471 23,700 2,000 Climbing FlightAware ADS-B
Thu 01:28:29 PM 39.9120 -103.4870 81° East 416 479 25,700 1,879 Climbing FlightAware ADS-B
Thu 01:29:08 PM 39.9230 -103.3910 81° East 421 484 26,800 1,667 Climbing FlightAware ADS-B
Thu 01:29:41 PM 39.9330 -103.3080 81° East 426 490 27,700 1,565 Climbing FlightAware ADS-B
Thu 01:30:17 PM 39.9430 -103.2160 82° East 432 497 28,600 1,537 Climbing FlightAware ADS-B
Thu 01:31:03 PM 39.9560 -103.0960 82° East 436 502 29,800 1,404 Climbing FlightAware ADS-B
Thu 01:31:51 PM 39.9700 -102.9720 82° East 444 511 30,800 1,432 Climbing FlightAware ADS-B
Thu 01:32:31 PM 39.9780 -102.8640 84° East 443 510 31,900 1,291 Climbing FlightAware ADS-B
Thu 01:33:10 PM 39.9840 -102.7610 86° East 453 521 32,500 1,143 Climbing FlightAware ADS-B
Thu 01:33:55 PM 39.9910 -102.6380 86° East 453 521 33,500 1,103 Climbing FlightAware ADS-B
Thu 01:34:37 PM 39.9980 -102.5220 85° East 464 534 34,100 929 Climbing FlightAware ADS-B
Thu 01:35:19 PM 40.0050 -102.4090 85° East 466 536 34,800 947 Climbing FlightAware ADS-B
Thu 01:36:31 PM 40.0160 -102.2010 86° East 475 547 35,900 667 Climbing FlightAware ADS-B
Thu 01:37:07 PM 40.0220 -102.0980 86° East 484 557 36,000 88 Climbing FlightAware ADS-B
Thu 01:37:39 PM 40.0270 -102.0090 86° East 485 558 36,000  Level FlightAware ADS-B
Thu 01:38:18 PM 40.0320 -101.9140 86° East 485 558 36,000 162 Level FlightAware ADS-B
Thu 01:38:53 PM 40.0390 -101.7980 85° East 483 556 36,200 655 Climbing FlightAware ADS-B
Thu 01:39:13 PM 40.0410 -101.7430 87° East 483 556 36,600 676 Climbing FlightAware ADS-B
Thu 01:40:04 PM 40.0490 -101.6000 86° East 488 562 37,000 296 Climbing FlightAware ADS-B
Thu 01:40:34 PM 40.0540 -101.5130 86° East 488 562 37,000  Level FlightAware ADS-B
Thu 01:41:08 PM 40.0590 -101.4110 86° East 484 557 37,000  Level FlightAware ADS-B
Thu 01:41:53 PM 40.0650 -101.2830 86° East 484 557 37,000  Level FlightAware ADS-B
Thu 01:42:18 PM 40.0690 -101.2020 86° East 479 551 37,000  Level FlightAware ADS-B
Thu 01:43:08 PM 40.0750 -101.0550 87° East 480 552 37,000  Level FlightAware ADS-B
Thu 01:44:17 PM 40.0830 -100.8710 87° East 480 552 37,000  Level FlightAware ADS-B
Thu 01:44:53 PM 40.0870 -100.7830 87° East 480 552 37,000  Level FlightAware ADS-B
Thu 01:45:29 PM 40.0900 -100.6940 87° East 480 552 37,000  Level FlightAware ADS-B
Thu 01:46:05 PM 40.0940 -100.6050 87° East 480 552 37,000  Level FlightAware ADS-B
Thu 01:46:41 PM 40.0980 -100.5160 87° East 480 552 37,000  Level FlightAware ADS-B
Thu 01:47:05 PM 40.1000 -100.4570 87° East 480 552 37,000  Level FlightAware ADS-B
Thu 01:47:42 PM 40.1040 -100.3660 87° East 480 552 37,000  Level FlightAware ADS-B
Thu 01:48:17 PM 40.1070 -100.2800 87° East 480 552 37,000  Level FlightAware ADS-B
Thu 01:48:53 PM 40.1110 -100.1910 87° East 480 552 37,000  Level FlightAware ADS-B
Thu 01:50:05 PM 40.1250 -99.8572 87° East 484 557 37,000  Level Denver Center
Thu 01:51:07 PM 40.1317 -99.6817 87° East 485 558 37,000  Level Denver Center
Thu 01:56:22 PM 40.1610 -98.7260 87° East 492 566 37,000  Level FlightAware ADS-B
Thu 01:56:56 PM 40.1630 -98.6360 88° East 492 566 37,000  Level FlightAware ADS-B
Thu 01:57:32 PM 40.1660 -98.5180 88° East 488 562 37,000  Level FlightAware ADS-B
Thu 01:58:12 PM 40.1690 -98.4170 88° East 487 560 37,000  Level FlightAware ADS-B
Thu 01:58:44 PM 40.1690 -98.4140 90° East 487 560 37,000  Level FlightAware ADS-B
Thu 01:59:34 PM 40.1750 -98.1610 88° East 480 552 37,000  Level FlightAware ADS-B
Thu 02:00:19 PM 40.1770 -98.0310 89° East 479 551 37,000  Level FlightAware ADS-B
Thu 02:01:18 PM 40.1810 -97.8630 88° East 478 550 37,000  Level FlightAware ADS-B
Thu 02:02:03 PM 40.1830 -97.7340 89° East 479 551 37,000  Level FlightAware ADS-B
Thu 02:02:57 PM 40.1860 -97.5790 88° East 480 552 37,000  Level FlightAware ADS-B
Thu 02:03:34 PM 40.1870 -97.4680 89° East 482 555 37,000  Level FlightAware ADS-B
Thu 02:04:09 PM 40.1890 -97.3680 88° East 482 555 37,000  Level FlightAware ADS-B
Thu 02:04:44 PM 40.1900 -97.2660 89° East 483 556 37,000  Level FlightAware ADS-B
Thu 02:05:16 PM 40.1920 -97.1730 88° East 484 557 37,000  Level FlightAware ADS-B
Thu 02:06:16 PM 40.1940 -96.9960 89° East 485 558 37,000  Level FlightAware ADS-B
Thu 02:06:57 PM 40.1950 -96.8760 89° East 485 558 37,000  Level FlightAware ADS-B
Thu 02:08:05 PM 40.1970 -96.6770 89° East 486 559 37,000  Level FlightAware ADS-B
Thu 02:08:44 PM 40.1980 -96.5640 89° East 487 560 37,000  Level FlightAware ADS-B
Thu 02:09:08 PM 40.1990 -96.4970 89° East 488 562 37,000  Level FlightAware ADS-B
Thu 02:10:17 PM 40.2000 -96.2910 90° East 486 559 37,000  Level FlightAware ADS-B
Thu 02:10:45 PM 40.2040 -96.2100 86° East 489 563 37,000  Level FlightAware ADS-B
Thu 02:11:34 PM 40.2170 -96.0890 82° East 489 563 37,000  Level FlightAware ADS-B
Thu 02:12:27 PM 40.2550 -95.9140 74° East 489 563 37,000  Level FlightAware ADS-B
Thu 02:13:02 PM 40.2730 -95.8150 77° East 487 560 37,000  Level FlightAware ADS-B
Thu 02:13:36 PM 40.2910 -95.7170 76° East 487 560 37,000  Level FlightAware ADS-B
Thu 02:14:16 PM 40.3120 -95.6010 77° East 487 560 37,000  Level FlightAware ADS-B
Thu 02:15:15 PM 40.3430 -95.4340 76° East 488 562 37,000  Level FlightAware ADS-B
Thu 02:15:47 PM 40.3590 -95.3420 77° East 490 564 37,000  Level FlightAware ADS-B
Thu 02:16:25 PM 40.3790 -95.2320 77° East 492 566 37,000  Level FlightAware ADS-B
Thu 02:16:50 PM 40.3920 -95.1580 77° East 494 568 37,000  Level FlightAware ADS-B
Thu 02:17:32 PM 40.4130 -95.0410 77° East 495 570 37,000  Level FlightAware ADS-B
Thu 02:17:59 PM 40.4270 -94.9580 77° East 497 572 37,000  Level FlightAware ADS-B
Thu 02:18:41 PM 40.4490 -94.8320 77° East 497 572 37,000  Level FlightAware ADS-B
Thu 02:19:14 PM 40.4660 -94.7370 77° East 497 572 37,000  Level FlightAware ADS-B
Thu 02:19:53 PM 40.4860 -94.6220 77° East 498 573 37,000  Level FlightAware ADS-B
Thu 02:20:43 PM 40.5110 -94.4770 77° East 496 571 37,000  Level FlightAware ADS-B
Thu 02:21:35 PM 40.5360 -94.3280 78° East 492 566 37,000  Level FlightAware ADS-B
Thu 02:22:05 PM 40.5510 -94.2370 78° East 491 565 37,000  Level FlightAware ADS-B
Thu 02:23:06 PM 40.5810 -94.0640 77° East 490 564 37,000  Level FlightAware ADS-B
Thu 02:23:46 PM 40.6010 -93.9420 78° East 488 562 37,000  Level FlightAware ADS-B
Thu 02:24:21 PM 40.6170 -93.8380 79° East 488 562 37,000  Level FlightAware ADS-B
Thu 02:24:57 PM 40.6310 -93.7370 80° East 486 559 37,000  Level FlightAware ADS-B
Thu 02:25:35 PM 40.6470 -93.6250 79° East 485 558 37,000  Level FlightAware ADS-B
Thu 02:26:27 PM 40.6690 -93.4770 79° East 483 556 37,000  Level FlightAware ADS-B
Thu 02:27:06 PM 40.6850 -93.3640 79° East 481 554 37,000  Level FlightAware ADS-B
Thu 02:28:04 PM 40.7090 -93.1950 79° East 478 550 37,000 -59 Level FlightAware ADS-B
Thu 02:28:47 PM 40.7260 -93.0720 80° East 481 554 36,900  Descending FlightAware ADS-B
Thu 02:29:45 PM 40.7500 -92.9050 79° East 486 559 37,000 70 Climbing FlightAware ADS-B
Thu 02:30:13 PM 40.7600 -92.8340 79° East 488 562 37,000  Level FlightAware ADS-B
Thu 02:31:02 PM 40.7810 -92.6790 80° East 491 565 37,000  Level FlightAware ADS-B
Thu 02:31:31 PM 40.7920 -92.5960 80° East 492 566 37,000 -295 Level FlightAware ADS-B
Thu 02:32:03 PM 40.8060 -92.4980 79° East 490 564 36,700 -656 Descending FlightAware ADS-B
Thu 02:32:35 PM 40.8180 -92.4050 80° East 490 564 36,300 -955 Descending FlightAware ADS-B
Thu 02:33:31 PM 40.8400 -92.2400 80° East 484 557 35,300 -1,034 Descending FlightAware ADS-B
Thu 02:34:02 PM 40.8510 -92.1540 80° East 482 555 34,800 -935 Descending FlightAware ADS-B
Thu 02:34:48 PM 40.8690 -92.0210 80° East 475 547 34,100 -975 Descending FlightAware ADS-B
Thu 02:35:22 PM 40.8810 -91.9250 81° East 469 540 33,500 -1,014 Descending FlightAware ADS-B
Thu 02:35:59 PM 40.8950 -91.8200 80° East 462 532 32,900 -973 Descending FlightAware ADS-B
Thu 02:36:36 PM 40.9080 -91.7180 80° East 457 526 32,300 -1,026 Descending FlightAware ADS-B
Thu 02:37:15 PM 40.9220 -91.6110 80° East 455 524 31,600 -1,026 Descending FlightAware ADS-B
Thu 02:37:52 PM 40.9340 -91.5100 81° East 453 521 31,000 -522 Descending FlightAware ADS-B
Thu 02:38:24 PM 40.9460 -91.4210 80° East 453 521 31,000  Level FlightAware ADS-B
Thu 02:39:07 PM 40.9600 -91.3060 81° East 451 519 31,000 -77 Level FlightAware ADS-B
Thu 02:39:42 PM 40.9720 -91.2100 81° East 452 520 30,900 -794 Descending FlightAware ADS-B
Thu 02:40:15 PM 40.9830 -91.1220 81° East 443 510 30,100 -2,043 Descending FlightAware ADS-B
Thu 02:41:16 PM 41.0030 -90.9580 81° East 449 517 27,700 -2,357 Descending FlightAware ADS-B
Thu 02:41:39 PM 41.0100 -90.8950 82° East 448 516 26,800 -2,197 Descending FlightAware ADS-B
Thu 02:42:27 PM 41.0250 -90.7680 81° East 443 510 25,100 -1,821 Descending FlightAware ADS-B
Thu 02:43:31 PM 41.0460 -90.5980 81° East 426 490 23,400 -1,328 Descending FlightAware ADS-B
Thu 02:44:29 PM 41.0630 -90.4500 81° East 417 480 22,400 -1,037 Descending FlightAware ADS-B
Thu 02:44:52 PM 41.0700 -90.3920 81° East 414 476 22,000 -964 Descending FlightAware ADS-B
Thu 02:45:25 PM 41.0790 -90.3100 82° East 412 474 21,500 -985 Descending FlightAware ADS-B
Thu 02:45:59 PM 41.0890 -90.2240 81° East 411 473 20,900 -1,032 Descending FlightAware ADS-B
Thu 02:46:58 PM 41.1060 -90.0780 81° East 408 470 19,900 -1,011 Descending FlightAware ADS-B
Thu 02:47:28 PM 41.1140 -90.0040 82° East 407 468 19,400 -968 Descending FlightAware ADS-B
Thu 02:48:00 PM 41.1230 -89.9250 81° East 406 467 18,900 -1,462 Descending FlightAware ADS-B
Thu 02:48:46 PM 41.1360 -89.8110 81° East 403 464 17,500 -1,705 Descending FlightAware ADS-B
Thu 02:49:28 PM 41.1470 -89.7110 82° East 398 458 16,400 -1,588 Descending FlightAware ADS-B
Thu 02:50:28 PM 41.1620 -89.5680 82° East 386 444 14,800 -1,333 Descending FlightAware ADS-B
Thu 02:51:07 PM 41.1690 -89.4770 84° East 370 426 14,200 -878 Descending FlightAware ADS-B
Thu 02:51:50 PM 41.1740 -89.3800 86° East 369 425 13,600 -769 Descending FlightAware ADS-B
Thu 02:52:25 PM 41.1790 -89.3050 85° East 368 423 13,200 -882 Descending FlightAware ADS-B
Thu 02:53:32 PM 41.2010 -89.1550 79° East 368 423 12,100 -966 Descending FlightAware ADS-B
Thu 02:53:52 PM 41.2170 -89.1200 59° Northeast 369 425 11,800 -1,011 Descending FlightAware ADS-B
Thu 02:55:01 PM 41.2750 -88.9800 61° Northeast 366 421 10,600 -980 Descending FlightAware ADS-B
Thu 02:55:30 PM 41.2990 -88.9230 61° Northeast 353 406 10,200 -1,015 Descending FlightAware ADS-B
Thu 02:56:06 PM 41.3250 -88.8600 61° Northeast 331 381 9,500 -1,818 Descending FlightAware ADS-B
Thu 02:56:36 PM 41.3400 -88.8020 71° East 324 373 8,200 -2,459 Descending FlightAware ADS-B
Thu 02:57:07 PM 41.3280 -88.7460 106° East 310 357 7,000 -1,833 Descending FlightAware ADS-B
Thu 02:57:48 PM 41.3340 -88.6670 84° East 323 372 6,000 -800 Descending FlightAware ADS-B
Thu 02:58:22 PM 41.3660 -88.6150 51° Northeast 320 368 6,000  Level FlightAware ADS-B
Thu 02:58:52 PM 41.3940 -88.5680 52° Northeast 319 367 6,000 -103 Level FlightAware ADS-B
Thu 02:59:20 PM 41.4190 -88.5250 52° Northeast 320 368 5,900  Descending FlightAware ADS-B
Thu 02:59:48 PM 41.4460 -88.4820 50° Northeast 321 369 6,000 -290 Climbing FlightAware ADS-B
Thu 03:00:22 PM 41.4770 -88.4290 52° Northeast 318 366 5,600 -909 Descending FlightAware ADS-B
Thu 03:00:54 PM 41.4910 -88.3710 72° East 316 364 5,000 -474 Descending FlightAware ADS-B
Thu 03:01:38 PM 41.5050 -88.2870 77° East 316 364 5,000  Level FlightAware ADS-B
Thu 03:02:04 PM 41.5130 -88.2370 78° East 315 362 5,000  Level FlightAware ADS-B
Thu 03:02:28 PM 41.5210 -88.1920 77° East 314 361 5,000  Level FlightAware ADS-B
Thu 03:03:04 PM 41.5310 -88.1230 79° East 316 364 5,000  Level FlightAware ADS-B
Thu 03:03:38 PM 41.5420 -88.0570 77° East 316 364 5,000  Level FlightAware ADS-B
Thu 03:04:08 PM 41.5510 -88.0000 78° East 315 362 5,000  Level FlightAware ADS-B
Thu 03:04:40 PM 41.5600 -87.9390 79° East 317 365 5,000 -94 Level FlightAware ADS-B
Thu 03:05:12 PM 41.5700 -87.8790 77° East 299 344 4,900  Descending FlightAware ADS-B
Thu 03:05:42 PM 41.5780 -87.8280 78° East 276 318 5,000 -353 Climbing FlightAware ADS-B
Thu 03:06:20 PM 41.5850 -87.7660 81° East 269 310 4,500 -769 Descending FlightAware ADS-B
Thu 03:07:00 PM 41.5930 -87.6990 81° East 271 312 4,000 -375 Descending FlightAware ADS-B
Thu 03:07:40 PM 41.6060 -87.6360 75° East 270 311 4,000 -88 Level FlightAware ADS-B
Thu 03:08:08 PM 41.6290 -87.6020 48° Northeast 252 290 3,900 -107 Descending FlightAware ADS-B
Thu 03:08:36 PM 41.6530 -87.5810 33° Northeast 206 237 3,900 -581 Level FlightAware ADS-B
Thu 03:09:10 PM 41.6750 -87.5990 329° Northwest 157 181 3,300 -730 Descending FlightAware ADS-B
Thu 03:09:50 PM 41.6950 -87.6260 315° West 165 190 3,000 -429 Descending FlightAware ADS-B
Thu 03:10:20 PM 41.7110 -87.6480 314° West 175 201 2,800 -484 Descending FlightAware ADS-B
Thu 03:10:52 PM 41.7300 -87.6750 313° West 180 207 2,500 -563 Descending FlightAware ADS-B
Thu 03:11:24 PM 41.7520 -87.6970 323° Northwest 192 221 2,200 -500 Descending FlightAware ADS-B
Thu 03:11:28 PM 41.7550 -87.6970 360° North 196 226 2,200 -226 Level FlightAware ADS-B
Thu 03:12:17 PM 41.7910 -87.6790 20° North 198 228 2,000 -488 Descending FlightAware ADS-B
Thu 03:12:54 PM 41.8120 -87.7080 314° West 135 155 1,500 -818 Descending FlightAware ADS-B
Thu 03:13:23 PM 41.8050 -87.7260 242° Southwest 117 135 1,100 -623 Descending FlightAware ADS-B
Thu 03:14:11 PM 41.7870 -87.7490 224° Southwest 119 137 700 -500 Descending FlightAware ADS-B

Login

Don't have an account? Register now (free) for customized features, flight alerts, and more!